Rebersburg, PA

4:48 PM EDT on April 27, 2015 (GMT -0400)
Nittany | | Change Station
CLOSE
Current Station
Personal Weather Station
Location: Howard, PA
Elevation: 922 ft
Nearby Weather Stations

Elev 922 ft 41.00 °N, 77.55 °W | Updated 5 seconds ago

Overcast
Overcast
55.2 °F
Feels Like 55.2 °F
N
0.0
Wind Variable Wind from NE
Gusts 4.0 mph

Today
High -- | Low -- °F
--% Chance of Precip.
Yesterday
High -- | Low -- °F
Precip. -- in
6:13 AM 8:01 PM
Waxing Gibbous, 67% visible
Pressure 29.79 in
Visibility 6.0 miles
Clouds Scattered Clouds 3000 ft
Mostly Cloudy 5000 ft
Overcast 9000 ft
Dew Point 41 °F
Humidity 58%
Rainfall 0.00 in
Snow Depth Not available.
UV 2 out of 12
Pollen 9.70 out of 12
Air Quality Not available.
Flu Activity Sporadic
METAR KUNV 271953Z 32012G20KT 6SM VCSH SCT030 BKN050 OVC090 09/04 A2979

More Conditions Fewer Conditions

Pressure 29.79 in
Visibility 6.0 miles
Clouds Scattered Clouds 3000 ft
Mostly Cloudy 5000 ft
Overcast 9000 ft
Dew Point 41 °F
Humidity 58%
Rainfall 0.00 in
Snow Depth Not available.
UV 2 out of 12
Pollen 9.70 out of 12
Air Quality Not available.
Flu Activity Sporadic
METAR KUNV 271953Z 32012G20KT 6SM VCSH SCT030 BKN050 OVC090 09/04 A2979

More Conditions Fewer Conditions

Nowcast | as of 4:24 PM EDT on April 27, 2015

Widely scattered showers will be across the region through sunset. Some of showers will contain a brief heavy downpour and even some small hail. A rumble of thunder will be possible. The showers are moving southeast at 25 mph.

×

10-Day Weather Forecast

Almanac

Astronomy

Apr. 27, 2015 Rise Set
Actual Time
Civil Twilight
Nautical Twilight
Astronomical Twilight
Moon
Length of Visible Light
Length of Day
Tomorrow will be .
, % of the Moon is Illuminated

Today's Extremes

State Highs State Lows

Community

WunderPhotos

Upload Photos

1,817,421 photos uploaded!

WunderBlogs® & News

Nearby

Air Quality

  Air Quality AQ Index Pollutant
Not available.

Snow Depth

Station Depth Elevation

Earthquake Activity

City Distance Mag. Time & Date
Minimum magnitude displayed is 2.5.

Coastal Water Temperatures

Place Temperature

Stations

Nearby Weather Stations

Station Location Temp. Windchill Dew Point Humidity Wind Precip. Elev Updated Type